<?xml version="1.0" encoding="UTF-8" standalone="no" ?>
<gpx xmlns="http://www.topografix.com/GPX/1/1" xmlns:xsi="http://www.w3.org/2001/XMLSchema-instance" xsi:schemaLocation="http://www.topografix.com/GPX/1/1 http://www.topografix.com/GPX/1/1/gpx.xsd" version="1.1" creator="VisuGPX - https://www.visugpx.com">
  <metadata>
    <name>De Meillerie à Salvigny</name>
    <desc><![CDATA[Randonnée en Haute-Savoie]]></desc>
  </metadata>
  <trk>
    <name><![CDATA[ACTIVE LOG: 28 JUL 2015 16:33]]></name>
    <trkseg>
      <trkpt lat="46.15112" lon="6.77154">
        <ele>1518.06</ele>
        <time>2015-07-28T14:33:26Z</time>
      </trkpt>
      <trkpt lat="46.15124" lon="6.77201">
        <ele>1512.29</ele>
        <time>2015-07-28T14:34:31Z</time>
      </trkpt>
      <trkpt lat="46.15087" lon="6.7722">
        <ele>1498.35</ele>
        <time>2015-07-28T14:35:36Z</time>
      </trkpt>
      <trkpt lat="46.15061" lon="6.77142">
        <ele>1488.26</ele>
        <time>2015-07-28T14:36:41Z</time>
      </trkpt>
      <trkpt lat="46.15041" lon="6.77048">
        <ele>1478.16</ele>
        <time>2015-07-28T14:37:46Z</time>
      </trkpt>
      <trkpt lat="46.15044" lon="6.76929">
        <ele>1470.47</ele>
        <time>2015-07-28T14:38:51Z</time>
      </trkpt>
      <trkpt lat="46.15062" lon="6.76826">
        <ele>1459.42</ele>
        <time>2015-07-28T14:39:56Z</time>
      </trkpt>
      <trkpt lat="46.15085" lon="6.76736">
        <ele>1446.44</ele>
        <time>2015-07-28T14:41:01Z</time>
      </trkpt>
      <trkpt lat="46.15072" lon="6.76648">
        <ele>1432.98</ele>
        <time>2015-07-28T14:42:06Z</time>
      </trkpt>
      <trkpt lat="46.1505" lon="6.76573">
        <ele>1421.93</ele>
        <time>2015-07-28T14:43:11Z</time>
      </trkpt>
      <trkpt lat="46.15026" lon="6.76518">
        <ele>1413.28</ele>
        <time>2015-07-28T14:44:16Z</time>
      </trkpt>
      <trkpt lat="46.14991" lon="6.76526">
        <ele>1407.99</ele>
        <time>2015-07-28T14:45:21Z</time>
      </trkpt>
      <trkpt lat="46.14923" lon="6.7653">
        <ele>1401.74</ele>
        <time>2015-07-28T14:46:26Z</time>
      </trkpt>
      <trkpt lat="46.14859" lon="6.7656">
        <ele>1396.93</ele>
        <time>2015-07-28T14:47:31Z</time>
      </trkpt>
      <trkpt lat="46.14818" lon="6.76547">
        <ele>1389.72</ele>
        <time>2015-07-28T14:48:36Z</time>
      </trkpt>
      <trkpt lat="46.14794" lon="6.76509">
        <ele>1374.82</ele>
        <time>2015-07-28T14:49:41Z</time>
      </trkpt>
      <trkpt lat="46.14737" lon="6.76505">
        <ele>1366.65</ele>
        <time>2015-07-28T14:50:46Z</time>
      </trkpt>
      <trkpt lat="46.14692" lon="6.76496">
        <ele>1357.04</ele>
        <time>2015-07-28T14:51:51Z</time>
      </trkpt>
      <trkpt lat="46.14677" lon="6.76443">
        <ele>1342.62</ele>
        <time>2015-07-28T14:52:56Z</time>
      </trkpt>
      <trkpt lat="46.1467" lon="6.76397">
        <ele>1329.16</ele>
        <time>2015-07-28T14:54:01Z</time>
      </trkpt>
      <trkpt lat="46.14678" lon="6.76326">
        <ele>1318.59</ele>
        <time>2015-07-28T14:55:06Z</time>
      </trkpt>
      <trkpt lat="46.14635" lon="6.76392">
        <ele>1313.3</ele>
        <time>2015-07-28T14:56:11Z</time>
      </trkpt>
      <trkpt lat="46.14592" lon="6.76462">
        <ele>1317.62</ele>
        <time>2015-07-28T14:57:16Z</time>
      </trkpt>
      <trkpt lat="46.14581" lon="6.76556">
        <ele>1322.91</ele>
        <time>2015-07-28T14:58:21Z</time>
      </trkpt>
      <trkpt lat="46.14525" lon="6.76581">
        <ele>1328.68</ele>
        <time>2015-07-28T14:59:26Z</time>
      </trkpt>
      <trkpt lat="46.14473" lon="6.76608">
        <ele>1332.52</ele>
        <time>2015-07-28T15:00:31Z</time>
      </trkpt>
      <trkpt lat="46.14442" lon="6.76692">
        <ele>1331.08</ele>
        <time>2015-07-28T15:01:36Z</time>
      </trkpt>
      <trkpt lat="46.14408" lon="6.76792">
        <ele>1324.35</ele>
        <time>2015-07-28T15:02:42Z</time>
      </trkpt>
      <trkpt lat="46.1434" lon="6.76823">
        <ele>1319.55</ele>
        <time>2015-07-28T15:03:47Z</time>
      </trkpt>
      <trkpt lat="46.14316" lon="6.76826">
        <ele>1320.03</ele>
        <time>2015-07-28T15:04:52Z</time>
      </trkpt>
      <trkpt lat="46.14296" lon="6.76825">
        <ele>1318.59</ele>
        <time>2015-07-28T15:05:57Z</time>
      </trkpt>
      <trkpt lat="46.14258" lon="6.76875">
        <ele>1323.39</ele>
        <time>2015-07-28T15:07:02Z</time>
      </trkpt>
      <trkpt lat="46.14232" lon="6.76962">
        <ele>1329.16</ele>
        <time>2015-07-28T15:08:07Z</time>
      </trkpt>
      <trkpt lat="46.14223" lon="6.77053">
        <ele>1335.41</ele>
        <time>2015-07-28T15:09:12Z</time>
      </trkpt>
      <trkpt lat="46.14211" lon="6.77147">
        <ele>1338.77</ele>
        <time>2015-07-28T15:10:17Z</time>
      </trkpt>
      <trkpt lat="46.14211" lon="6.77243">
        <ele>1342.62</ele>
        <time>2015-07-28T15:11:22Z</time>
      </trkpt>
      <trkpt lat="46.14214" lon="6.77295">
        <ele>1343.58</ele>
        <time>2015-07-28T15:12:27Z</time>
      </trkpt>
      <trkpt lat="46.14184" lon="6.77297">
        <ele>1343.58</ele>
        <time>2015-07-28T15:13:32Z</time>
      </trkpt>
      <trkpt lat="46.14154" lon="6.77289">
        <ele>1346.46</ele>
        <time>2015-07-28T15:14:37Z</time>
      </trkpt>
      <trkpt lat="46.14092" lon="6.77318">
        <ele>1352.23</ele>
        <time>2015-07-28T15:15:42Z</time>
      </trkpt>
      <trkpt lat="46.14066" lon="6.77361">
        <ele>1356.56</ele>
        <time>2015-07-28T15:16:47Z</time>
      </trkpt>
      <trkpt lat="46.14056" lon="6.77381">
        <ele>1356.08</ele>
        <time>2015-07-28T15:17:15Z</time>
      </trkpt>
    </trkseg>
  </trk>
</gpx>